createdAt,value
2023-01-08T00:02:21.676Z,15.07
2023-01-08T00:06:27.749Z,14.82
2023-01-08T00:10:33.512Z,12.77
2023-01-08T00:14:42.278Z,16.15
2023-01-08T00:18:46.322Z,13.10
2023-01-08T00:22:51.878Z,13.82
2023-01-08T00:26:56.583Z,15.18
2023-01-08T00:31:05.675Z,11.63
2023-01-08T00:35:10.402Z,14.75
2023-01-08T00:39:19.262Z,14.07
2023-01-08T00:43:36.729Z,11.10
2023-01-08T00:47:41.620Z,19.15
2023-01-08T00:51:45.394Z,14.95
2023-01-08T00:55:53.473Z,14.30
2023-01-08T00:59:57.007Z,14.40
2023-01-08T01:04:06.095Z,15.75
2023-01-08T01:08:10.116Z,13.75
2023-01-08T01:12:13.960Z,14.55
2023-01-08T01:16:18.863Z,15.15
2023-01-08T01:20:29.091Z,26.15
2023-01-08T01:28:36.689Z,17.15
2023-01-08T01:36:51.240Z,13.30
2023-01-08T01:40:55.257Z,11.23
2023-01-08T01:44:58.800Z,13.98
2023-01-08T01:49:07.425Z,10.98
2023-01-08T01:53:14.500Z,9.98
2023-01-08T01:57:18.581Z,11.55
2023-01-08T02:01:31.395Z,14.52
2023-01-08T02:05:42.995Z,20.40
2023-01-08T02:09:51.670Z,13.27
2023-01-08T02:13:59.867Z,9.15
2023-01-08T02:18:09.052Z,8.32
2023-01-08T02:22:20.803Z,9.90
2023-01-08T02:26:30.323Z,12.32
2023-01-08T02:30:34.854Z,14.38
2023-01-08T02:34:39.442Z,9.60
2023-01-08T02:38:54.262Z,8.70
2023-01-08T02:43:07.055Z,9.65
2023-01-08T02:47:15.427Z,7.97
2023-01-08T02:51:24.290Z,11.57
2023-01-08T02:55:29.967Z,13.48
2023-01-08T02:59:40.335Z,9.13
2023-01-08T03:03:47.797Z,9.93
2023-01-08T03:07:55.319Z,11.57
2023-01-08T03:12:07.537Z,14.55
2023-01-08T03:16:14.266Z,12.70
2023-01-08T03:20:19.959Z,13.52
2023-01-08T03:24:28.463Z,17.38
2023-01-08T03:28:38.854Z,12.30
2023-01-08T03:32:49.061Z,9.57
2023-01-08T03:36:53.907Z,10.50
2023-01-08T03:41:00.563Z,12.60
2023-01-08T03:45:04.647Z,18.10
2023-01-08T03:49:13.375Z,18.10
2023-01-08T03:53:20.103Z,12.23
2023-01-08T03:57:24.323Z,10.35
2023-01-08T04:01:27.996Z,12.32
2023-01-08T04:05:40.417Z,10.52
2023-01-08T04:09:55.351Z,10.77
2023-01-08T04:13:59.418Z,13.02
2023-01-08T04:18:02.909Z,8.73
2023-01-08T04:22:11.639Z,10.35
2023-01-08T04:26:15.552Z,12.70
2023-01-08T04:34:26.237Z,13.32
2023-01-08T04:38:32.741Z,11.00
2023-01-08T04:42:39.465Z,11.50
2023-01-08T04:46:43.837Z,11.50
2023-01-08T04:50:49.131Z,8.15
2023-01-08T04:54:56.839Z,11.55
2023-01-08T04:59:01.014Z,8.60
2023-01-08T05:03:05.480Z,10.73
2023-01-08T05:07:09.863Z,10.68
2023-01-08T05:11:15.044Z,18.10
2023-01-08T05:15:18.906Z,15.93
2023-01-08T05:19:23.237Z,14.25
2023-01-08T05:23:27.512Z,10.32
2023-01-08T05:27:50.351Z,9.23
2023-01-08T05:31:53.889Z,8.82
2023-01-08T05:35:57.834Z,7.55
2023-01-08T05:40:03.405Z,8.88
2023-01-08T05:44:08.489Z,5.90
2023-01-08T05:48:12.325Z,6.35
2023-01-08T05:52:19.011Z,6.82
2023-01-08T05:56:23.016Z,6.95
2023-01-08T06:00:28.999Z,5.25
2023-01-08T06:04:31.798Z,9.20
2023-01-08T06:08:35.430Z,7.88
2023-01-08T06:12:40.153Z,7.78
2023-01-08T06:16:48.815Z,7.75
2023-01-08T06:20:52.883Z,5.45
2023-01-08T06:29:00.710Z,5.80
2023-01-08T06:33:15.121Z,3.97
2023-01-08T06:37:22.454Z,4.28
2023-01-08T06:41:26.214Z,11.32
2023-01-08T06:45:29.927Z,8.02
2023-01-08T06:49:34.596Z,4.68
2023-01-08T06:53:49.705Z,6.60
2023-01-08T06:57:56.666Z,6.80
2023-01-08T07:02:00.368Z,6.53
2023-01-08T07:06:06.912Z,5.72
2023-01-08T07:10:11.762Z,4.75
2023-01-08T07:14:16.272Z,4.25
2023-01-08T07:18:19.217Z,6.45
2023-01-08T07:22:27.774Z,3.33
2023-01-08T07:26:35.187Z,4.90
2023-01-08T07:30:39.064Z,4.30
2023-01-08T07:34:43.526Z,4.70
2023-01-08T07:38:55.071Z,2.47
2023-01-08T07:43:06.766Z,3.60
2023-01-08T07:47:15.543Z,4.47
2023-01-08T07:51:28.529Z,5.15
2023-01-08T07:55:35.332Z,1.80
2023-01-08T07:59:41.358Z,2.90
2023-01-08T08:03:47.526Z,4.38
2023-01-08T08:08:07.706Z,2.33
2023-01-08T08:12:18.020Z,3.20
2023-01-08T08:16:27.087Z,4.65
2023-01-08T08:20:32.401Z,5.68
2023-01-08T08:24:37.669Z,3.70
2023-01-08T08:28:47.531Z,4.13
2023-01-08T08:32:59.998Z,3.17
2023-01-08T08:37:10.808Z,4.78
2023-01-08T08:41:15.367Z,3.03
2023-01-08T08:45:26.389Z,5.63
2023-01-08T08:49:31.429Z,3.08
2023-01-08T08:53:38.371Z,6.70
2023-01-08T08:57:44.025Z,8.05
2023-01-08T09:01:51.555Z,3.72
2023-01-08T09:06:07.685Z,4.13
2023-01-08T09:10:13.135Z,4.97
2023-01-08T09:14:23.620Z,5.10
2023-01-08T09:18:32.754Z,4.43
2023-01-08T09:22:43.193Z,6.70
2023-01-08T09:26:51.648Z,6.45
2023-01-08T09:31:02.541Z,7.97
2023-01-08T09:35:11.533Z,9.40
2023-01-08T09:39:18.486Z,5.25
2023-01-08T09:43:26.865Z,4.97
2023-01-08T09:47:36.203Z,3.70
2023-01-08T09:51:42.031Z,4.75
2023-01-08T09:56:09.183Z,5.03
2023-01-08T10:00:17.965Z,4.13
2023-01-08T10:04:23.504Z,6.45
2023-01-08T10:08:35.695Z,38.20
2023-01-08T10:12:41.695Z,6.38
2023-01-08T10:16:46.630Z,7.60
2023-01-08T10:20:53.948Z,5.85
2023-01-08T10:25:10.558Z,8.63
2023-01-08T10:29:21.021Z,5.40
2023-01-08T10:33:28.219Z,6.15
2023-01-08T10:37:39.821Z,5.50
2023-01-08T10:41:45.873Z,6.95
2023-01-08T10:45:58.510Z,6.57
2023-01-08T10:50:06.229Z,6.88
2023-01-08T10:54:28.355Z,6.55
2023-01-08T10:58:43.817Z,7.50
2023-01-08T11:02:51.655Z,4.78
2023-01-08T11:07:00.230Z,6.28
2023-01-08T11:15:41.180Z,3.47
2023-01-08T11:19:45.876Z,3.55
2023-01-08T11:23:52.615Z,2.97
2023-01-08T11:28:01.102Z,3.17
2023-01-08T11:32:15.509Z,2.97
2023-01-08T11:36:26.353Z,5.10
2023-01-08T11:40:39.924Z,3.72
2023-01-08T11:44:59.267Z,2.70
2023-01-08T11:49:28.817Z,7.05
2023-01-08T11:53:40.069Z,5.57
2023-01-08T11:57:53.625Z,4.28
2023-01-08T12:02:18.404Z,7.85
2023-01-08T12:06:40.526Z,4.13
2023-01-08T12:10:54.726Z,4.18
2023-01-08T12:15:11.609Z,2.65
2023-01-08T12:19:25.570Z,5.03
2023-01-08T12:23:46.096Z,3.90
2023-01-08T12:27:57.688Z,2.60
2023-01-08T12:32:20.115Z,2.33
2023-01-08T12:36:26.469Z,3.38
2023-01-08T12:40:34.405Z,2.65
2023-01-08T12:44:39.338Z,4.10
2023-01-08T12:48:42.395Z,1.63
2023-01-08T12:52:49.994Z,2.83
2023-01-08T12:56:57.226Z,4.40
2023-01-08T13:01:12.090Z,3.45
2023-01-08T13:05:30.942Z,4.18
2023-01-08T13:09:34.228Z,3.15
2023-01-08T13:13:44.621Z,4.47
2023-01-08T13:17:50.201Z,6.35
2023-01-08T13:21:54.140Z,3.63
2023-01-08T13:30:02.082Z,1.15
2023-01-08T13:34:21.199Z,2.75
2023-01-08T13:38:23.876Z,2.30
2023-01-08T13:42:28.568Z,4.03
2023-01-08T13:46:34.720Z,7.65
2023-01-08T13:50:38.505Z,4.28
2023-01-08T13:54:43.755Z,4.85
2023-01-08T13:58:53.025Z,2.28
2023-01-08T14:02:59.994Z,6.85
2023-01-08T14:07:15.249Z,1.65
2023-01-08T14:11:19.813Z,1.77
2023-01-08T14:15:25.240Z,1.55
2023-01-08T14:19:29.622Z,5.60
2023-01-08T14:23:36.543Z,6.97
2023-01-08T14:27:40.813Z,3.25
2023-01-08T14:31:47.793Z,5.63
2023-01-08T14:35:55.091Z,2.03
2023-01-08T14:39:57.753Z,3.33
2023-01-08T14:44:00.436Z,4.05
2023-01-08T14:48:12.197Z,3.85
2023-01-08T14:52:20.069Z,5.65
2023-01-08T14:56:25.097Z,2.67
2023-01-08T15:00:29.813Z,4.32
2023-01-08T15:04:32.887Z,1.77
2023-01-08T15:08:38.879Z,5.78
2023-01-08T15:12:43.656Z,2.60
2023-01-08T15:16:47.669Z,3.33
2023-01-08T15:20:50.680Z,3.03
2023-01-08T15:24:59.254Z,2.33
2023-01-08T15:29:05.834Z,9.23
2023-01-08T15:33:21.001Z,5.55
2023-01-08T15:37:27.150Z,4.03
2023-01-08T15:41:54.550Z,6.18
2023-01-08T15:45:57.373Z,4.05
2023-01-08T15:50:06.680Z,10.18
2023-01-08T15:54:12.333Z,2.83
2023-01-08T15:58:17.481Z,2.92
2023-01-08T16:02:22.800Z,6.38
2023-01-08T16:06:25.912Z,2.88
2023-01-08T16:10:30.546Z,5.80
2023-01-08T16:14:38.529Z,5.45
2023-01-08T16:18:44.377Z,4.88
2023-01-08T16:28:14.536Z,4.70
2023-01-08T16:32:20.157Z,3.05
2023-01-08T16:36:33.393Z,3.92
2023-01-08T16:40:38.823Z,3.30
2023-01-08T16:44:44.387Z,2.67
2023-01-08T16:49:01.545Z,3.17
2023-01-08T16:53:08.230Z,4.25
2023-01-08T16:57:18.273Z,3.17
2023-01-08T17:01:22.354Z,4.15
2023-01-08T17:05:30.709Z,4.70
2023-01-08T17:09:35.028Z,6.28
2023-01-08T17:13:48.341Z,4.38
2023-01-08T17:17:51.652Z,3.85
2023-01-08T17:21:57.244Z,8.25
2023-01-08T17:26:17.352Z,3.30
2023-01-08T17:30:22.363Z,5.15
2023-01-08T17:34:26.832Z,4.78
2023-01-08T17:38:40.821Z,7.28
2023-01-08T17:42:48.238Z,4.63
2023-01-08T17:46:51.880Z,4.55
2023-01-08T17:55:29.429Z,6.72
2023-01-08T17:59:33.853Z,6.80
2023-01-08T18:03:40.095Z,9.57
2023-01-08T18:07:53.123Z,5.85
2023-01-08T18:11:58.855Z,8.13
2023-01-08T18:16:07.686Z,6.60
2023-01-08T18:20:15.509Z,6.10
2023-01-08T18:24:23.673Z,6.72
2023-01-08T18:28:28.336Z,7.32
2023-01-08T18:32:32.794Z,8.45
2023-01-08T18:36:37.623Z,7.45
2023-01-08T18:40:44.314Z,10.68
2023-01-08T18:44:57.137Z,8.80
2023-01-08T18:49:01.073Z,8.18
2023-01-08T18:53:10.947Z,7.63
2023-01-08T18:57:18.304Z,11.90
2023-01-08T19:01:25.125Z,13.45
2023-01-08T19:05:33.158Z,20.70
2023-01-08T19:09:36.294Z,20.45
2023-01-08T19:13:40.854Z,16.17
2023-01-08T19:17:47.541Z,13.25
2023-01-08T19:21:51.785Z,10.75
2023-01-08T19:25:58.778Z,9.75
2023-01-08T19:30:03.133Z,12.45
2023-01-08T19:34:12.560Z,7.93
2023-01-08T19:38:17.527Z,10.43
2023-01-08T19:42:38.933Z,8.55
2023-01-08T19:46:51.868Z,9.32
2023-01-08T19:51:02.378Z,8.40
2023-01-08T19:59:10.626Z,12.82
2023-01-08T20:03:14.715Z,8.77
2023-01-08T20:07:20.680Z,10.15
2023-01-08T20:11:28.439Z,8.50
2023-01-08T20:15:32.741Z,10.18
2023-01-08T20:19:36.732Z,7.10
2023-01-08T20:23:45.057Z,8.68
2023-01-08T20:27:57.724Z,8.98
2023-01-08T20:32:07.553Z,7.43
2023-01-08T20:36:12.359Z,12.25
2023-01-08T20:40:30.463Z,7.30
2023-01-08T20:44:35.368Z,9.93
2023-01-08T20:48:48.333Z,8.68
2023-01-08T20:52:51.958Z,17.65
2023-01-08T20:56:59.680Z,9.65
2023-01-08T21:01:09.881Z,9.15
2023-01-08T21:09:17.880Z,19.33
2023-01-08T21:13:23.283Z,14.57
2023-01-08T21:17:26.241Z,13.05
2023-01-08T21:21:33.090Z,39.90
2023-01-08T21:25:40.027Z,15.18
2023-01-08T21:29:49.653Z,17.67
2023-01-08T21:33:53.992Z,17.00
2023-01-08T21:37:58.023Z,18.08
2023-01-08T21:46:29.812Z,17.05
2023-01-08T21:50:34.754Z,13.70
2023-01-08T21:54:39.878Z,14.50
2023-01-08T21:58:46.645Z,19.67
2023-01-08T22:02:56.486Z,15.60
2023-01-08T22:07:02.787Z,12.10
2023-01-08T22:11:10.366Z,27.00
2023-01-08T22:15:20.400Z,15.63
2023-01-08T22:19:29.478Z,24.80
2023-01-08T22:23:34.153Z,10.27
2023-01-08T22:27:37.605Z,10.98
2023-01-08T22:31:41.860Z,7.10
2023-01-08T22:35:50.780Z,7.47
2023-01-08T22:40:01.412Z,7.75
2023-01-08T22:44:13.482Z,3.20
2023-01-08T22:48:20.020Z,3.97
2023-01-08T22:52:37.005Z,5.68
2023-01-08T22:56:42.564Z,4.70
2023-01-08T23:00:50.177Z,3.38
2023-01-08T23:05:15.734Z,4.15
2023-01-08T23:09:28.740Z,3.25
2023-01-08T23:13:34.336Z,2.38
2023-01-08T23:17:52.209Z,1.98
2023-01-08T23:21:57.755Z,3.88
2023-01-08T23:26:10.747Z,2.92
2023-01-08T23:30:17.615Z,3.67
2023-01-08T23:34:41.464Z,2.45
2023-01-08T23:38:51.940Z,1.10
2023-01-08T23:51:16.744Z,2.75
2023-01-08T23:55:26.079Z,2.45
2023-01-08T23:59:36.109Z,1.73
